Time;durP1;ratioP1;P1;durP2;ratioP2;P2;SDS_P1;SDS_P2;PMS_P1;PMS_P2;Temp;Humidity;BMP_temperature;BMP_pressure;BME280_temperature;BME280_humidity;BME280_pressure;Samples;Min_cycle;Max_cycle;Signal;HPM_P1;HPM_P2
2023/02/20 00:02:21;;;;;;;;;;;;;;;18.93;24.83;98690.97;5093624;28;19927;-96
2023/02/20 00:04:47;;;;;;;;;;;;;;;18.73;25.05;98688.81;5097358;28;19927;-96
2023/02/20 00:07:13;;;;;;;;;;;;;;;17.64;26.41;98697.44;5096568;28;20295;-96
2023/02/20 00:09:39;;;;;;;;;;;;;;;17.65;26.60;98689.91;5095764;28;20015;-96
2023/02/20 00:12:05;;;;;;;;;;;;;;;17.52;26.94;98702.44;5095323;28;20384;-96
2023/02/20 00:14:31;;;;;;;;;;;;;;;18.10;26.56;98695.28;5106375;28;19986;-96
2023/02/20 00:16:58;;;;;;;;;;;;;;;18.29;25.53;98695.09;5097277;28;19927;-96
2023/02/20 00:19:24;;;;;;;;;;;;;;;17.92;26.14;98691.50;5115278;28;20411;-95
2023/02/20 00:21:51;;;;;;;;;;;;;;;17.40;26.45;98683.19;5117212;28;19920;-96
2023/02/20 00:24:18;;;;;;;;;;;;;;;17.81;26.25;98687.75;5095658;28;19920;-96
2023/02/20 00:26:45;;;;;;;;;;;;;;;19.39;24.25;98693.38;5093461;28;19999;-96
2023/02/20 00:29:13;;;;;;;;;;;;;;;18.41;25.44;98692.03;5098686;28;19971;-96
2023/02/20 00:31:39;;;;;;;;;;;;;;;18.23;25.97;98696.63;5104072;28;19916;-96
2023/02/20 00:34:05;;;;;;;;;;;;;;;19.31;25.03;98696.06;5084460;28;19924;-96
2023/02/20 00:36:31;;;;;;;;;;;;;;;19.00;24.53;98695.81;5078133;28;19946;-96
2023/02/20 00:38:57;;;;;;;;;;;;;;;18.19;25.52;98692.19;5091025;28;19928;-96
2023/02/20 00:41:23;;;;;;;;;;;;;;;19.39;24.80;98687.78;5098417;28;19927;-94
2023/02/20 00:43:49;;;;;;;;;;;;;;;19.58;24.23;98690.31;5111871;28;19928;-95
2023/02/20 00:46:15;;;;;;;;;;;;;;;19.41;24.24;98694.56;5113263;28;19908;-96
2023/02/20 00:48:41;;;;;;;;;;;;;;;18.50;25.64;98689.81;5090955;28;19927;-95
2023/02/20 00:51:07;;;;;;;;;;;;;;;19.78;23.77;98689.63;5090962;28;20006;-95
2023/02/20 00:53:33;;;;;;;;;;;;;;;19.86;23.64;98684.88;5094292;28;20030;-96
2023/02/20 00:55:59;;;;;;;;;;;;;;;19.59;24.16;98672.38;5094871;28;19967;-95
2023/02/20 00:58:25;;;;;;;;;;;;;;;19.10;24.93;98672.84;5090126;28;20043;-95
2023/02/20 01:00:51;;;;;;;;;;;;;;;19.12;24.76;98662.09;5090433;28;20011;-95
2023/02/20 01:03:18;;;;;;;;;;;;;;;19.94;23.86;98661.41;5093971;28;19920;-96
2023/02/20 01:05:44;;;;;;;;;;;;;;;19.15;24.78;98661.34;5117470;28;20280;-95
2023/02/20 01:08:10;;;;;;;;;;;;;;;19.26;25.07;98660.22;5096329;28;19931;-96
2023/02/20 01:10:36;;;;;;;;;;;;;;;19.88;23.90;98663.78;5071893;28;19924;-95
2023/02/20 01:13:02;;;;;;;;;;;;;;;19.91;23.91;98665.78;5079171;28;20302;-95
2023/02/20 01:15:28;;;;;;;;;;;;;;;19.00;24.93;98667.97;5092324;28;19951;-96
2023/02/20 01:17:54;;;;;;;;;;;;;;;19.62;24.45;98666.84;5088629;28;19920;-96
2023/02/20 01:20:20;;;;;;;;;;;;;;;19.73;23.85;98667.69;5092389;28;19924;-96
2023/02/20 01:22:46;;;;;;;;;;;;;;;18.68;26.07;98667.72;5097252;28;19920;-96
2023/02/20 01:25:12;;;;;;;;;;;;;;;18.80;25.45;98678.56;5097821;28;19916;-96
2023/02/20 01:27:38;;;;;;;;;;;;;;;18.50;25.75;98678.69;5095041;28;19932;-96
2023/02/20 01:30:04;;;;;;;;;;;;;;;19.16;25.04;98677.66;5085629;28;19931;-95
2023/02/20 01:32:30;;;;;;;;;;;;;;;20.09;23.66;98693.75;5090352;28;19943;-96
2023/02/20 01:34:56;;;;;;;;;;;;;;;19.16;25.09;98676.88;5093172;28;19921;-96
2023/02/20 01:37:22;;;;;;;;;;;;;;;19.92;23.74;98678.53;5097251;28;19916;-96
2023/02/20 01:39:48;;;;;;;;;;;;;;;19.01;24.93;98672.38;5087815;28;19920;-96
2023/02/20 01:42:19;;;;;;;;;;;;;;;18.81;25.75;98685.72;5088459;28;19948;-96
2023/02/20 01:44:45;;;;;;;;;;;;;;;18.28;26.08;98681.56;5097097;28;20360;-95
2023/02/20 01:47:14;;;;;;;;;;;;;;;19.45;24.61;98681.47;5077330;28;19999;-96
2023/02/20 01:49:43;;;;;;;;;;;;;;;20.31;23.60;98678.69;5078005;28;19931;-96
2023/02/20 01:52:15;;;;;;;;;;;;;;;20.77;23.31;98678.78;5095860;28;20345;-96
2023/02/20 01:54:42;;;;;;;;;;;;;;;20.89;22.96;98672.00;5094839;28;19920;-96
2023/02/20 01:57:11;;;;;;;;;;;;;;;20.42;23.22;98670.38;5084119;28;19931;-96
2023/02/20 01:59:39;;;;;;;;;;;;;;;20.22;23.40;98669.09;5086323;28;19920;-96
2023/02/20 02:02:05;;;;;;;;;;;;;;;20.52;23.04;98658.41;5096232;28;19948;-96
2023/02/20 02:04:33;;;;;;;;;;;;;;;20.84;22.90;98648.06;5089288;28;19982;-96
2023/02/20 02:06:59;;;;;;;;;;;;;;;20.54;23.21;98642.06;5091587;28;19924;-96
2023/02/20 02:09:28;;;;;;;;;;;;;;;19.34;24.13;98647.16;5094198;28;22074;-96
2023/02/20 02:11:54;;;;;;;;;;;;;;;18.83;25.46;98641.63;5090992;28;19980;-96
2023/02/20 02:14:20;;;;;;;;;;;;;;;18.38;25.98;98640.00;5095589;28;20022;-95
2023/02/20 02:17:06;;;;;;;;;;;;;;;19.48;24.68;98638.91;5086943;28;19945;-95
2023/02/20 02:19:41;;;;;;;;;;;;;;;19.82;23.75;98633.88;5063497;28;20529;-96
2023/02/20 02:22:28;;;;;;;;;;;;;;;19.11;25.04;98633.47;5096091;28;20053;-96
2023/02/20 02:24:54;;;;;;;;;;;;;;;19.14;25.08;98629.13;5086687;28;20014;-96
2023/02/20 02:27:48;;;;;;;;;;;;;;;19.69;24.23;98618.72;5095714;28;19971;-95
2023/02/20 02:30:32;;;;;;;;;;;;;;;19.82;24.10;98620.75;5088416;28;19920;-95
2023/02/20 02:32:58;;;;;;;;;;;;;;;19.54;24.72;98620.63;5082595;28;20260;-94
2023/02/20 02:35:43;;;;;;;;;;;;;;;19.80;23.99;98623.16;5075882;28;20003;-94
2023/02/20 02:38:17;;;;;;;;;;;;;;;20.22;23.52;98625.31;5081550;28;19931;-95
2023/02/20 02:41:02;;;;;;;;;;;;;;;20.65;23.19;98617.78;5080736;28;19920;-94
2023/02/20 02:43:34;;;;;;;;;;;;;;;19.07;24.51;98626.28;5075304;28;19978;-96
2023/02/20 02:46:05;;;;;;;;;;;;;;;19.32;24.65;98619.69;5081108;28;19920;-95
2023/02/20 02:48:51;;;;;;;;;;;;;;;19.57;24.24;98611.50;5093172;28;19927;-95
2023/02/20 02:51:23;;;;;;;;;;;;;;;20.49;23.46;98597.88;5094601;28;19974;-95
2023/02/20 02:54:09;;;;;;;;;;;;;;;20.98;22.71;98600.63;5092300;28;19924;-96
2023/02/20 02:56:37;;;;;;;;;;;;;;;21.35;22.38;98608.59;5093921;28;19978;-96
2023/02/20 02:59:04;;;;;;;;;;;;;;;21.44;22.07;98614.53;5092560;28;19926;-95
2023/02/20 03:01:31;;;;;;;;;;;;;;;21.13;22.40;98613.41;5082697;28;19927;-96
2023/02/20 03:03:59;;;;;;;;;;;;;;;21.06;22.21;98615.41;5089278;28;19920;-96
2023/02/20 03:06:33;;;;;;;;;;;;;;;21.07;22.26;98619.81;5094918;28;19916;-96
2023/02/20 03:09:01;;;;;;;;;;;;;;;21.20;22.07;98618.97;5081497;28;19920;-95
2023/02/20 03:11:29;;;;;;;;;;;;;;;21.48;21.87;98622.91;5086819;28;19916;-96
2023/02/20 03:17:05;;;;;;;;;;;;;;;21.72;21.82;98606.06;5088296;28;19923;-96
2023/02/20 03:19:34;;;;;;;;;;;;;;;21.58;21.61;98594.13;5094567;28;20433;-96
2023/02/20 03:22:01;;;;;;;;;;;;;;;22.31;21.29;98575.41;5072517;28;19964;-95
2023/02/20 03:24:29;;;;;;;;;;;;;;;22.34;20.92;98566.97;5071627;28;19963;-96
2023/02/20 03:26:55;;;;;;;;;;;;;;;22.40;20.68;98554.16;5077784;28;19932;-95
2023/02/20 03:29:26;;;;;;;;;;;;;;;22.30;20.86;98549.44;5086913;28;19920;-95
2023/02/20 03:43:20;;;;;;;;;;;;;;;21.19;21.20;98555.94;5083353;28;19930;-96
2023/02/20 03:45:46;;;;;;;;;;;;;;;20.70;21.61;98558.00;5093764;28;20284;-96
2023/02/20 03:48:21;;;;;;;;;;;;;;;20.80;22.38;98552.41;5093127;28;20384;-96
2023/02/20 03:53:32;;;;;;;;;;;;;;;21.85;21.25;98561.69;5078665;28;20005;-96
2023/02/20 03:55:59;;;;;;;;;;;;;;;22.29;20.85;98555.41;5093316;28;19920;-96
2023/02/20 03:58:26;;;;;;;;;;;;;;;22.07;20.60;98552.00;5101478;28;19920;-95
2023/02/20 04:00:54;;;;;;;;;;;;;;;21.53;21.03;98558.22;5109489;28;19920;-96
2023/02/20 04:03:22;;;;;;;;;;;;;;;22.18;20.46;98551.91;5111075;28;19916;-96
2023/02/20 04:05:51;;;;;;;;;;;;;;;21.85;20.86;98558.91;5094784;28;19927;-96
2023/02/20 04:08:23;;;;;;;;;;;;;;;21.28;21.13;98556.31;5094965;28;19920;-96
2023/02/20 04:10:56;;;;;;;;;;;;;;;20.92;21.05;98553.97;5092603;28;19931;-96
2023/02/20 04:13:23;;;;;;;;;;;;;;;20.85;21.49;98563.16;5089074;28;19927;-96
2023/02/20 04:15:49;;;;;;;;;;;;;;;20.10;22.61;98574.66;5091339;28;19916;-96
2023/02/20 04:18:17;;;;;;;;;;;;;;;19.56;23.06;98567.31;5094232;28;20012;-96
2023/02/20 04:20:45;;;;;;;;;;;;;;;20.33;22.14;98561.97;5091856;28;20372;-95
2023/02/20 04:23:18;;;;;;;;;;;;;;;20.58;21.72;98570.38;5082376;28;19920;-96
2023/02/20 04:25:46;;;;;;;;;;;;;;;20.31;21.87;98564.38;5087576;28;19921;-95
2023/02/20 04:28:13;;;;;;;;;;;;;;;20.83;21.33;98551.59;5086882;28;20015;-95
2023/02/20 04:30:39;;;;;;;;;;;;;;;21.05;21.23;98558.00;5089790;28;19929;-95
2023/02/20 04:33:05;;;;;;;;;;;;;;;21.11;21.02;98554.38;5077164;28;20023;-95
2023/02/20 04:35:31;;;;;;;;;;;;;;;20.93;21.15;98555.59;5092448;28;19920;-94
2023/02/20 04:37:58;;;;;;;;;;;;;;;21.32;21.14;98550.72;5093491;28;19978;-95
2023/02/20 04:40:24;;;;;;;;;;;;;;;21.91;20.20;98548.91;5090339;28;19941;-95
2023/02/20 04:42:50;;;;;;;;;;;;;;;22.30;19.80;98549.44;5081090;28;19925;-96
2023/02/20 04:45:16;;;;;;;;;;;;;;;22.39;19.60;98532.19;5079498;28;19916;-94
2023/02/20 04:47:43;;;;;;;;;;;;;;;22.50;19.67;98528.06;5092567;28;19927;-96
2023/02/20 04:50:12;;;;;;;;;;;;;;;22.42;19.68;98520.16;5075555;28;20382;-95
2023/02/20 04:52:40;;;;;;;;;;;;;;;22.57;19.35;98516.81;5059898;28;20301;-95
2023/02/20 04:55:06;;;;;;;;;;;;;;;22.55;19.63;98508.06;5076973;28;19927;-94
2023/02/20 04:57:32;;;;;;;;;;;;;;;22.62;19.53;98498.81;5086258;28;19947;-95
2023/02/20 04:59:58;;;;;;;;;;;;;;;22.69;19.16;98510.75;5092160;28;19924;-96
2023/02/20 05:02:24;;;;;;;;;;;;;;;22.35;19.37;98523.81;5091319;28;20291;-95
2023/02/20 05:04:50;;;;;;;;;;;;;;;22.06;19.48;98519.63;5095946;28;20004;-94
2023/02/20 05:07:17;;;;;;;;;;;;;;;21.37;20.01;98525.19;5079905;28;19921;-96
2023/02/20 05:09:43;;;;;;;;;;;;;;;21.22;20.73;98518.03;5099964;28;19935;-95
2023/02/20 05:12:09;;;;;;;;;;;;;;;21.47;20.67;98524.31;5092554;28;20023;-96
2023/02/20 05:14:35;;;;;;;;;;;;;;;21.76;20.26;98525.78;5094973;28;19920;-96
2023/02/20 05:17:01;;;;;;;;;;;;;;;21.89;20.06;98514.97;5096449;28;20421;-92
2023/02/20 05:19:27;;;;;;;;;;;;;;;21.62;20.17;98511.09;5096373;28;19916;-95
2023/02/20 05:24:37;;;;;;;;;;;;;;;21.90;19.89;98506.16;5076926;28;19924;-93
2023/02/20 05:27:03;;;;;;;;;;;;;;;22.02;19.88;98516.88;5090533;28;19924;-94
2023/02/20 05:29:29;;;;;;;;;;;;;;;22.10;19.96;98506.41;5096768;28;19969;-89
2023/02/20 05:31:55;;;;;;;;;;;;;;;21.92;19.76;98500.94;5097031;28;19920;-96
2023/02/20 05:34:24;;;;;;;;;;;;;;;21.98;19.78;98498.53;5082117;28;19928;-96
2023/02/20 05:36:50;;;;;;;;;;;;;;;21.76;19.58;98492.25;5091090;28;20395;-96
2023/02/20 05:39:16;;;;;;;;;;;;;;;21.76;19.81;98508.22;5083553;28;20335;-94
2023/02/20 05:41:42;;;;;;;;;;;;;;;21.75;19.79;98506.63;5092262;28;19927;-96
2023/02/20 05:44:08;;;;;;;;;;;;;;;21.92;19.64;98509.34;5094632;28;19927;-96
2023/02/20 05:46:38;;;;;;;;;;;;;;;21.80;20.32;98511.78;5093909;28;19920;-95
2023/02/20 05:49:05;;;;;;;;;;;;;;;22.14;19.77;98509.19;5092889;28;20407;-95
2023/02/20 05:51:31;;;;;;;;;;;;;;;22.43;19.39;98505.75;5094794;28;20023;-94
2023/02/20 05:53:57;;;;;;;;;;;;;;;22.49;19.62;98509.72;5092378;28;19917;-93
2023/02/20 05:56:24;;;;;;;;;;;;;;;22.76;19.65;98509.88;5076678;28;19920;-93
2023/02/20 05:58:50;;;;;;;;;;;;;;;22.98;19.48;98513.28;5094296;28;19923;-92
2023/02/20 06:01:18;;;;;;;;;;;;;;;23.05;19.41;98518.78;5089749;28;19916;-91
2023/02/20 06:03:44;;;;;;;;;;;;;;;23.08;19.63;98518.75;5082990;28;19927;-92
2023/02/20 06:06:10;;;;;;;;;;;;;;;23.30;19.10;98516.50;5092099;28;19916;-96
2023/02/20 06:08:37;;;;;;;;;;;;;;;23.24;19.12;98518.19;5091029;28;19916;-96
2023/02/20 06:11:03;;;;;;;;;;;;;;;23.16;19.16;98520.25;5098028;28;19961;-96
2023/02/20 06:13:29;;;;;;;;;;;;;;;23.03;19.36;98532.44;5097713;28;19916;-96
2023/02/20 06:15:55;;;;;;;;;;;;;;;22.79;19.40;98528.66;5114510;28;19916;-96
2023/02/20 06:18:21;;;;;;;;;;;;;;;22.98;19.89;98524.47;5097575;28;19919;-96
2023/02/20 06:20:47;;;;;;;;;;;;;;;23.12;20.15;98518.72;5098016;28;20375;-96
2023/02/20 06:23:13;;;;;;;;;;;;;;;23.47;19.76;98525.94;5099351;28;20371;-96
2023/02/20 06:25:39;;;;;;;;;;;;;;;23.62;19.51;98521.75;5099324;28;20420;-96
2023/02/20 06:28:05;;;;;;;;;;;;;;;23.72;19.58;98527.22;5097986;28;19959;-96
2023/02/20 06:30:31;;;;;;;;;;;;;;;23.87;19.50;98525.81;5099674;28;19917;-96
2023/02/20 06:32:57;;;;;;;;;;;;;;;24.06;19.44;98529.97;5098290;28;19970;-96
2023/02/20 06:35:23;;;;;;;;;;;;;;;23.87;18.73;98525.00;5097376;28;19916;-96
2023/02/20 06:37:49;;;;;;;;;;;;;;;23.82;19.22;98529.09;5083493;28;19946;-96
2023/02/20 06:40:15;;;;;;;;;;;;;;;23.62;18.83;98527.38;5098142;28;19916;-96
2023/02/20 06:42:42;;;;;;;;;;;;;;;23.38;19.92;98528.47;5097206;28;19987;-96
2023/02/20 06:45:09;;;;;;;;;;;;;;;23.49;19.49;98524.31;5101221;28;19920;-96
2023/02/20 06:47:35;;;;;;;;;;;;;;;23.28;19.40;98525.34;5081511;28;20061;-95
2023/02/20 06:50:02;;;;;;;;;;;;;;;23.44;19.67;98526.78;5095641;28;19920;-96
2023/02/20 06:52:28;;;;;;;;;;;;;;;22.19;20.22;98529.16;5087463;28;19920;-96
2023/02/20 06:54:54;;;;;;;;;;;;;;;22.87;20.42;98530.16;5092403;28;20013;-96
2023/02/20 06:57:21;;;;;;;;;;;;;;;22.69;20.24;98519.16;5096682;28;19924;-96
2023/02/20 06:59:48;;;;;;;;;;;;;;;23.22;20.30;98515.78;5090772;28;19928;-96
2023/02/20 07:02:15;;;;;;;;;;;;;;;23.44;19.88;98504.34;5100221;28;19966;-96
2023/02/20 07:04:42;;;;;;;;;;;;;;;23.56;19.69;98503.81;5081427;28;19920;-96
2023/02/20 07:07:08;;;;;;;;;;;;;;;23.73;19.79;98489.56;5100120;28;19942;-95
2023/02/20 07:09:34;;;;;;;;;;;;;;;23.75;19.71;98489.13;5096343;28;20356;-96
2023/02/20 07:12:00;;;;;;;;;;;;;;;23.80;19.77;98491.47;5097999;28;20319;-96
2023/02/20 07:14:26;;;;;;;;;;;;;;;23.74;18.83;98485.53;5092490;28;19920;-95
2023/02/20 07:16:52;;;;;;;;;;;;;;;23.96;19.76;98483.22;5082825;28;19947;-91
2023/02/20 07:19:18;;;;;;;;;;;;;;;23.79;18.93;98487.06;5113525;28;19972;-96
2023/02/20 07:21:47;;;;;;;;;;;;;;;23.94;19.47;98469.59;5096957;28;19924;-93
2023/02/20 07:24:13;;;;;;;;;;;;;;;23.70;19.28;98453.16;5094567;28;19916;-96
2023/02/20 07:26:39;;;;;;;;;;;;;;;23.75;19.50;98450.66;5103470;28;19920;-96
2023/02/20 07:29:06;;;;;;;;;;;;;;;23.31;20.32;98471.25;5104073;28;19927;-96
2023/02/20 07:31:32;;;;;;;;;;;;;;;23.55;19.71;98460.94;5093006;28;19920;-96
2023/02/20 07:33:58;;;;;;;;;;;;;;;23.41;19.67;98463.19;5080684;28;19920;-95
2023/02/20 07:36:24;;;;;;;;;;;;;;;23.81;19.90;98459.38;5084805;28;20426;-94
2023/02/20 07:38:55;;;;;;;;;;;;;;;23.91;19.54;98456.44;5086302;28;20269;-96
2023/02/20 07:41:21;;;;;;;;;;;;;;;23.70;19.70;98456.75;5094367;28;19920;-96
2023/02/20 07:43:47;;;;;;;;;;;;;;;23.30;20.75;98457.66;5095376;28;19923;-96
2023/02/20 07:46:13;;;;;;;;;;;;;;;23.08;19.95;98456.34;5093947;28;19965;-96
2023/02/20 07:48:39;;;;;;;;;;;;;;;23.66;19.72;98453.22;5093811;28;19928;-96
2023/02/20 07:51:05;;;;;;;;;;;;;;;23.81;19.57;98460.19;5094553;28;19916;-95
2023/02/20 07:53:31;;;;;;;;;;;;;;;23.95;20.30;98464.78;5094070;28;20329;-96
2023/02/20 07:55:58;;;;;;;;;;;;;;;23.07;20.11;98447.16;5081881;28;19917;-95
2023/02/20 07:58:24;;;;;;;;;;;;;;;23.59;20.22;98442.09;5074485;28;19925;-96
2023/02/20 08:00:50;;;;;;;;;;;;;;;22.83;20.92;98439.03;5073828;28;20269;-95
2023/02/20 08:03:16;;;;;;;;;;;;;;;23.04;20.58;98439.56;5102344;28;19916;-96
2023/02/20 08:05:43;;;;;;;;;;;;;;;23.26;21.24;98442.91;5097443;28;20007;-95
2023/02/20 08:08:09;;;;;;;;;;;;;;;23.57;20.39;98424.88;5092931;28;19920;-95
2023/02/20 08:10:35;;;;;;;;;;;;;;;23.72;19.65;98417.06;5094220;28;19916;-96
2023/02/20 08:13:02;;;;;;;;;;;;;;;23.54;19.98;98419.34;5094280;28;19916;-95
2023/02/20 08:15:28;;;;;;;;;;;;;;;23.18;20.28;98421.78;5072461;28;20341;-95
2023/02/20 08:17:54;;;;;;;;;;;;;;;23.36;20.08;98425.97;5055699;28;19916;-95
2023/02/20 08:20:20;;;;;;;;;;;;;;;24.14;20.42;98419.22;5077687;28;20295;-95
2023/02/20 08:22:47;;;;;;;;;;;;;;;23.96;19.66;98416.69;5093730;28;19926;-96
2023/02/20 08:25:14;;;;;;;;;;;;;;;24.09;19.39;98414.09;5094091;28;19916;-95
2023/02/20 08:27:41;;;;;;;;;;;;;;;23.46;19.93;98413.03;5093938;28;20010;-95
2023/02/20 08:30:10;;;;;;;;;;;;;;;22.57;22.11;98418.88;5093727;28;19920;-95
2023/02/20 08:32:36;;;;;;;;;;;;;;;22.57;21.96;98421.66;5093765;28;19966;-95
2023/02/20 08:35:02;;;;;;;;;;;;;;;22.99;21.08;98417.63;5087821;28;19986;-94
2023/02/20 08:37:28;;;;;;;;;;;;;;;23.07;20.96;98407.94;5076163;28;19927;-95
2023/02/20 08:39:54;;;;;;;;;;;;;;;22.54;22.94;98405.72;5080714;28;20272;-95
2023/02/20 08:42:20;;;;;;;;;;;;;;;22.91;21.40;98406.94;5077576;28;19932;-94
2023/02/20 08:44:46;;;;;;;;;;;;;;;23.24;21.02;98404.09;5096416;28;19916;-95
2023/02/20 08:47:12;;;;;;;;;;;;;;;23.70;20.74;98391.47;5097367;28;19924;-95
2023/02/20 08:49:38;;;;;;;;;;;;;;;23.36;21.01;98385.97;5095899;28;19959;-95
2023/02/20 08:52:04;;;;;;;;;;;;;;;23.26;20.98;98372.88;5096195;28;19917;-95
2023/02/20 08:54:31;;;;;;;;;;;;;;;22.60;20.97;98369.69;5092456;28;20014;-94
2023/02/20 08:56:57;;;;;;;;;;;;;;;21.72;22.42;98367.72;5097443;28;20023;-95
2023/02/20 08:59:23;;;;;;;;;;;;;;;23.09;21.43;98371.91;5097334;28;19955;-94
2023/02/20 09:01:49;;;;;;;;;;;;;;;23.57;21.12;98382.84;5115477;28;20488;-95
2023/02/20 09:04:15;;;;;;;;;;;;;;;23.91;20.91;98375.09;5107312;28;19920;-93
2023/02/20 09:06:41;;;;;;;;;;;;;;;24.68;20.54;98363.69;5092404;28;19927;-95
2023/02/20 09:09:07;;;;;;;;;;;;;;;24.39;22.11;98352.22;5091542;28;20273;-95
2023/02/20 09:11:34;;;;;;;;;;;;;;;24.45;21.72;98346.91;5096781;28;19931;-94
2023/02/20 09:14:00;;;;;;;;;;;;;;;24.58;20.52;98347.84;5097011;28;19916;-94
2023/02/20 09:16:27;;;;;;;;;;;;;;;22.80;22.06;98348.25;5097010;28;20364;-94
2023/02/20 09:18:54;;;;;;;;;;;;;;;23.00;22.82;98348.41;5063611;28;19964;-95
2023/02/20 09:21:20;;;;;;;;;;;;;;;23.05;22.15;98351.56;5092738;28;19924;-94
2023/02/20 09:23:46;;;;;;;;;;;;;;;23.64;23.00;98321.06;5096871;28;19924;-94
2023/02/20 09:26:13;;;;;;;;;;;;;;;24.03;21.73;98326.81;5091200;28;20326;-95
2023/02/20 09:28:39;;;;;;;;;;;;;;;24.36;20.74;98330.66;5090672;28;19947;-95
2023/02/20 09:31:05;;;;;;;;;;;;;;;23.57;23.04;98326.78;5079156;28;20387;-95
2023/02/20 09:33:31;;;;;;;;;;;;;;;24.61;22.07;98311.28;5082469;28;19916;-95
2023/02/20 09:35:57;;;;;;;;;;;;;;;24.67;21.60;98308.75;5116144;28;19916;-95
2023/02/20 09:38:26;;;;;;;;;;;;;;;25.10;22.23;98289.00;5116512;28;20363;-94
2023/02/20 09:40:53;;;;;;;;;;;;;;;23.44;23.37;98299.78;5114783;28;20007;-95
2023/02/20 09:43:22;;;;;;;;;;;;;;;24.43;22.47;98298.84;5092754;28;19935;-92
2023/02/20 09:45:48;;;;;;;;;;;;;;;24.82;21.72;98303.66;5087340;28;19961;-94
2023/02/20 09:48:24;;;;;;;;;;;;;;;23.84;21.79;98296.72;5094889;28;20300;-94
2023/02/20 09:50:56;;;;;;;;;;;;;;;22.92;25.68;98291.72;5097608;28;20005;-94
2023/02/20 09:53:26;;;;;;;;;;;;;;;23.03;23.68;98291.56;5096757;28;19927;-94
2023/02/20 09:55:53;;;;;;;;;;;;;;;21.87;26.43;98288.13;5096584;28;19952;-96
2023/02/20 09:58:22;;;;;;;;;;;;;;;21.71;24.97;98276.69;5096693;28;20419;-95
2023/02/20 10:00:49;;;;;;;;;;;;;;;22.00;24.62;98281.63;5062312;28;19961;-96
2023/02/20 10:03:21;;;;;;;;;;;;;;;23.00;23.97;98270.81;5083165;28;19963;-95
2023/02/20 10:05:47;;;;;;;;;;;;;;;24.29;22.27;98266.25;5093865;28;19927;-95
2023/02/20 10:08:16;;;;;;;;;;;;;;;24.63;22.25;98268.75;5101541;28;19922;-96
2023/02/20 10:10:42;;;;;;;;;;;;;;;25.19;23.00;98264.69;5081747;28;19920;-92
2023/02/20 10:13:27;;;;;;;;;;;;;;;25.00;21.62;98265.53;5082479;28;19939;-92
2023/02/20 10:16:12;;;;;;;;;;;;;;;24.78;21.97;98264.44;5076059;28;19992;-92
2023/02/20 10:18:58;;;;;;;;;;;;;;;25.11;21.55;98259.69;5083138;28;19942;-93
2023/02/20 10:21:27;;;;;;;;;;;;;;;25.34;21.76;98248.28;5070595;28;20333;-92
2023/02/20 10:23:57;;;;;;;;;;;;;;;24.70;22.40;98249.72;5083332;28;19917;-92
2023/02/20 10:26:31;;;;;;;;;;;;;;;25.00;23.39;98239.47;5089617;28;19943;-93
2023/02/20 10:29:00;;;;;;;;;;;;;;;24.66;22.28;98228.56;5077264;28;19921;-93
2023/02/20 10:31:32;;;;;;;;;;;;;;;24.53;24.64;98222.81;5078482;28;19928;-93
2023/02/20 10:34:02;;;;;;;;;;;;;;;25.03;22.29;98221.75;5087963;28;19927;-92
2023/02/20 10:36:39;;;;;;;;;;;;;;;23.99;24.39;98224.31;5090082;28;19920;-92
2023/02/20 10:39:07;;;;;;;;;;;;;;;23.73;22.41;98217.59;5096202;28;19920;-90
2023/02/20 10:41:44;;;;;;;;;;;;;;;23.69;24.63;98222.47;5089251;28;20265;-95
2023/02/20 10:44:19;;;;;;;;;;;;;;;24.13;22.62;98209.25;5074683;28;19931;-94
2023/02/20 10:46:51;;;;;;;;;;;;;;;24.70;22.57;98199.19;5080899;28;19924;-94
2023/02/20 10:49:40;;;;;;;;;;;;;;;24.58;22.92;98196.25;5085958;28;19963;-93
2023/02/20 10:52:09;;;;;;;;;;;;;;;24.39;23.03;98183.81;5092283;28;19920;-93
2023/02/20 10:54:42;;;;;;;;;;;;;;;24.95;22.58;98181.78;5077296;28;19920;-93
2023/02/20 10:57:08;;;;;;;;;;;;;;;23.27;24.04;98179.13;5076327;28;19973;-93
2023/02/20 11:00:03;;;;;;;;;;;;;;;23.43;23.61;98169.31;5084186;28;20018;-94
2023/02/20 11:02:33;;;;;;;;;;;;;;;24.40;23.44;98165.78;5060759;28;19920;-92
2023/02/20 11:05:02;;;;;;;;;;;;;;;24.27;24.81;98162.03;5076715;28;19916;-92
2023/02/20 11:07:28;;;;;;;;;;;;;;;24.50;23.56;98150.72;5086783;28;19959;-93
2023/02/20 11:09:54;;;;;;;;;;;;;;;24.38;23.21;98148.59;5076506;28;19920;-94
2023/02/20 11:12:23;;;;;;;;;;;;;;;24.00;24.14;98147.34;5079038;28;20273;-94
2023/02/20 11:14:51;;;;;;;;;;;;;;;23.72;24.87;98142.31;5079318;28;19920;-93
2023/02/20 11:17:18;;;;;;;;;;;;;;;23.95;24.50;98119.81;5088975;28;20014;-95
2023/02/20 11:19:45;;;;;;;;;;;;;;;24.09;25.16;98107.53;5103201;28;20436;-92
2023/02/20 11:22:11;;;;;;;;;;;;;;;23.75;25.32;98107.81;5080886;28;19921;-93
2023/02/20 11:24:38;;;;;;;;;;;;;;;24.68;24.05;98109.00;5086935;28;19927;-92
2023/02/20 11:27:07;;;;;;;;;;;;;;;24.28;25.93;98095.50;5088826;28;19931;-92
2023/02/20 11:29:39;;;;;;;;;;;;;;;23.01;27.26;98100.78;5093113;28;20041;-92
2023/02/20 11:32:23;;;;;;;;;;;;;;;23.29;26.94;98109.47;5080822;28;19920;-94
2023/02/20 11:35:04;;;;;;;;;;;;;;;23.72;27.11;98101.06;5078960;28;19916;-93
2023/02/20 11:37:30;;;;;;;;;;;;;;;23.08;24.89;98098.63;5074315;28;19959;-94
2023/02/20 11:39:58;;;;;;;;;;;;;;;23.80;25.60;98080.09;5085562;28;19959;-93
2023/02/20 11:42:31;;;;;;;;;;;;;;;24.04;24.52;98084.34;5090941;28;19927;-94
2023/02/20 11:45:12;;;;;;;;;;;;;;;23.85;25.11;98085.16;5089560;28;19920;-91
2023/02/20 11:47:38;;;;;;;;;;;;;;;23.66;25.36;98077.56;5083216;28;19921;-93
2023/02/20 11:50:12;;;;;;;;;;;;;;;24.50;24.31;98076.94;5095420;28;19920;-93
2023/02/20 11:52:53;;;;;;;;;;;;;;;24.66;23.93;98079.75;5073821;28;19920;-93
2023/02/20 11:55:21;;;;;;;;;;;;;;;24.58;23.87;98075.53;5088555;28;19920;-93
2023/02/20 11:57:48;;;;;;;;;;;;;;;24.45;24.00;98061.41;5087468;28;20435;-93
2023/02/20 12:00:19;;;;;;;;;;;;;;;24.76;23.36;98061.91;5093646;28;19981;-93
2023/02/20 12:02:48;;;;;;;;;;;;;;;25.28;23.10;98056.09;5094021;28;19920;-93
2023/02/20 12:05:14;;;;;;;;;;;;;;;25.17;23.17;98064.84;5093991;28;19968;-94
2023/02/20 12:07:43;;;;;;;;;;;;;;;25.24;24.17;98052.63;5083870;28;19924;-93
2023/02/20 12:10:27;;;;;;;;;;;;;;;25.36;23.17;98041.44;5091730;28;19920;-93
2023/02/20 12:12:53;;;;;;;;;;;;;;;25.19;24.77;98031.47;5091270;28;20019;-95
2023/02/20 12:15:21;;;;;;;;;;;;;;;25.40;23.20;98027.28;5085345;28;20014;-96
2023/02/20 12:17:50;;;;;;;;;;;;;;;25.67;24.02;98007.25;5078828;28;19916;-93
2023/02/20 12:20:16;;;;;;;;;;;;;;;25.52;22.73;98004.06;5094911;28;19963;-92
2023/02/20 12:23:00;;;;;;;;;;;;;;;25.48;23.93;97994.97;5092897;28;20395;-95
2023/02/20 12:25:32;;;;;;;;;;;;;;;25.82;23.18;97981.06;5084050;28;19920;-94
2023/02/20 12:28:12;;;;;;;;;;;;;;;25.32;22.63;97975.31;5074130;28;20444;-92
2023/02/20 12:31:11;;;;;;;;;;;;;;;24.45;24.54;97966.00;5086105;28;19965;-92
2023/02/20 12:33:37;;;;;;;;;;;;;;;25.05;24.39;97978.47;5065351;28;20412;-93
2023/02/20 12:36:09;;;;;;;;;;;;;;;24.65;23.72;97980.69;5086683;28;20489;-90
2023/02/20 12:38:57;;;;;;;;;;;;;;;24.19;24.30;97963.44;5084505;28;19976;-90
2023/02/20 12:41:23;;;;;;;;;;;;;;;24.28;23.98;97958.00;5088347;28;19974;-91
2023/02/20 12:44:08;;;;;;;;;;;;;;;23.72;23.67;97974.91;5078267;28;20299;-89
2023/02/20 12:46:52;;;;;;;;;;;;;;;23.33;25.90;97960.91;5088863;28;19946;-89
2023/02/20 12:49:44;;;;;;;;;;;;;;;24.42;24.46;97964.06;5075423;28;20331;-92
2023/02/20 12:52:27;;;;;;;;;;;;;;;25.40;22.89;97957.00;5089801;28;19923;-90
2023/02/20 12:54:56;;;;;;;;;;;;;;;25.29;24.99;97956.53;5088714;28;19920;-91
2023/02/20 12:57:30;;;;;;;;;;;;;;;24.94;23.86;97946.28;5087537;28;19970;-91
2023/02/20 12:59:56;;;;;;;;;;;;;;;24.18;24.80;97925.41;5094035;28;19916;-91
2023/02/20 13:02:28;;;;;;;;;;;;;;;24.60;24.08;97921.47;5090725;28;19920;-93
2023/02/20 13:04:57;;;;;;;;;;;;;;;24.55;25.54;97917.19;5086330;28;19921;-93
2023/02/20 13:07:26;;;;;;;;;;;;;;;24.99;24.20;97901.59;5081186;28;19920;-94
2023/02/20 13:09:57;;;;;;;;;;;;;;;24.40;23.83;97904.78;5090729;28;19924;-93
2023/02/20 13:12:24;;;;;;;;;;;;;;;24.23;25.19;97902.41;5089517;28;19923;-94
2023/02/20 13:15:05;;;;;;;;;;;;;;;24.30;23.95;97899.44;5092064;28;19978;-93
2023/02/20 13:17:38;;;;;;;;;;;;;;;23.95;24.25;97882.22;5087388;28;19924;-93